sensor_id;sensor_type;location;lat;lon;timestamp;temperature;humidity
22194;DHT22;11262;50.308;9.270;2022-12-18T00:01:36;-5.90;99.90
22194;DHT22;11262;50.308;9.270;2022-12-18T00:04:07;-5.90;99.90
22194;DHT22;11262;50.308;9.270;2022-12-18T00:06:35;-6.00;99.90
22194;DHT22;11262;50.308;9.270;2022-12-18T00:09:02;-6.00;99.90
22194;DHT22;11262;50.308;9.270;2022-12-18T00:11:29;-6.00;99.90
22194;DHT22;11262;50.308;9.270;2022-12-18T00:13:57;-6.10;99.90
22194;DHT22;11262;50.308;9.270;2022-12-18T00:16:25;-6.10;99.90
22194;DHT22;11262;50.308;9.270;2022-12-18T00:18:53;-6.10;99.90
22194;DHT22;11262;50.308;9.270;2022-12-18T00:21:20;-6.10;99.90
22194;DHT22;11262;50.308;9.270;2022-12-18T00:23:46;-6.10;99.90
22194;DHT22;11262;50.308;9.270;2022-12-18T00:26:24;-6.10;99.90
22194;DHT22;11262;50.308;9.270;2022-12-18T00:28:51;-6.10;99.90
22194;DHT22;11262;50.308;9.270;2022-12-18T00:31:20;-6.10;99.90
22194;DHT22;11262;50.308;9.270;2022-12-18T00:33:46;-6.10;99.90
22194;DHT22;11262;50.308;9.270;2022-12-18T00:36:22;-6.10;99.90
22194;DHT22;11262;50.308;9.270;2022-12-18T00:38:49;-6.10;99.90
22194;DHT22;11262;50.308;9.270;2022-12-18T00:41:15;-6.10;99.90
22194;DHT22;11262;50.308;9.270;2022-12-18T00:44:02;-6.10;99.90
22194;DHT22;11262;50.308;9.270;2022-12-18T00:46:28;-6.00;99.90
22194;DHT22;11262;50.308;9.270;2022-12-18T00:48:54;-6.10;99.90
22194;DHT22;11262;50.308;9.270;2022-12-18T00:51:19;-6.10;99.90
22194;DHT22;11262;50.308;9.270;2022-12-18T00:53:45;-6.10;99.90
22194;DHT22;11262;50.308;9.270;2022-12-18T00:56:10;-6.10;99.90
22194;DHT22;11262;50.308;9.270;2022-12-18T00:58:36;-6.10;99.90
22194;DHT22;11262;50.308;9.270;2022-12-18T01:01:04;-6.20;99.90
22194;DHT22;11262;50.308;9.270;2022-12-18T01:03:29;-6.20;99.90
22194;DHT22;11262;50.308;9.270;2022-12-18T01:05:56;-6.20;99.90
22194;DHT22;11262;50.308;9.270;2022-12-18T01:08:21;-6.20;99.90
22194;DHT22;11262;50.308;9.270;2022-12-18T01:10:47;-6.20;99.90
22194;DHT22;11262;50.308;9.270;2022-12-18T01:13:18;-6.20;99.90
22194;DHT22;11262;50.308;9.270;2022-12-18T01:15:50;-6.20;99.90
22194;DHT22;11262;50.308;9.270;2022-12-18T01:18:15;-6.20;99.90
22194;DHT22;11262;50.308;9.270;2022-12-18T01:20:41;-6.20;99.90
22194;DHT22;11262;50.308;9.270;2022-12-18T01:23:06;-6.20;99.90
22194;DHT22;11262;50.308;9.270;2022-12-18T01:25:32;-6.10;99.90
22194;DHT22;11262;50.308;9.270;2022-12-18T01:27:58;-6.10;99.90
22194;DHT22;11262;50.308;9.270;2022-12-18T01:30:24;-6.10;99.90
22194;DHT22;11262;50.308;9.270;2022-12-18T01:32:49;-6.10;99.90
22194;DHT22;11262;50.308;9.270;2022-12-18T01:35:15;-6.10;99.90
22194;DHT22;11262;50.308;9.270;2022-12-18T01:37:41;-6.00;99.90
22194;DHT22;11262;50.308;9.270;2022-12-18T01:40:07;-6.00;99.90
22194;DHT22;11262;50.308;9.270;2022-12-18T01:42:32;-6.00;99.90
22194;DHT22;11262;50.308;9.270;2022-12-18T01:47:47;-6.00;99.90
22194;DHT22;11262;50.308;9.270;2022-12-18T01:50:17;-6.00;99.90
22194;DHT22;11262;50.308;9.270;2022-12-18T01:52:46;-5.90;99.90
22194;DHT22;11262;50.308;9.270;2022-12-18T01:55:13;-5.90;99.90
22194;DHT22;11262;50.308;9.270;2022-12-18T01:57:40;-5.90;99.90
22194;DHT22;11262;50.308;9.270;2022-12-18T02:00:18;-5.90;99.90
22194;DHT22;11262;50.308;9.270;2022-12-18T02:02:46;-5.90;99.90
22194;DHT22;11262;50.308;9.270;2022-12-18T02:05:17;-5.90;99.90
22194;DHT22;11262;50.308;9.270;2022-12-18T02:16:29;-5.90;99.90
22194;DHT22;11262;50.308;9.270;2022-12-18T02:19:01;-5.90;99.90
22194;DHT22;11262;50.308;9.270;2022-12-18T02:21:39;-5.90;99.90
22194;DHT22;11262;50.308;9.270;2022-12-18T02:26:52;-5.90;99.90
22194;DHT22;11262;50.308;9.270;2022-12-18T02:29:26;-5.90;99.90
22194;DHT22;11262;50.308;9.270;2022-12-18T02:31:56;-6.00;99.90
22194;DHT22;11262;50.308;9.270;2022-12-18T02:34:34;-6.00;99.90
22194;DHT22;11262;50.308;9.270;2022-12-18T02:37:04;-6.00;99.90
22194;DHT22;11262;50.308;9.270;2022-12-18T02:39:32;-6.00;99.90
22194;DHT22;11262;50.308;9.270;2022-12-18T02:41:59;-6.10;99.90
22194;DHT22;11262;50.308;9.270;2022-12-18T02:44:26;-6.10;99.90
22194;DHT22;11262;50.308;9.270;2022-12-18T02:46:53;-6.10;99.90
22194;DHT22;11262;50.308;9.270;2022-12-18T02:49:44;-6.20;99.90
22194;DHT22;11262;50.308;9.270;2022-12-18T02:57:53;-6.10;99.90
22194;DHT22;11262;50.308;9.270;2022-12-18T03:00:22;-6.00;99.90
22194;DHT22;11262;50.308;9.270;2022-12-18T03:08:18;-6.00;99.90
22194;DHT22;11262;50.308;9.270;2022-12-18T03:10:51;-6.00;99.90
22194;DHT22;11262;50.308;9.270;2022-12-18T03:13:44;-6.00;99.90
22194;DHT22;11262;50.308;9.270;2022-12-18T03:16:11;-6.00;99.90
22194;DHT22;11262;50.308;9.270;2022-12-18T03:18:39;-5.90;99.90
22194;DHT22;11262;50.308;9.270;2022-12-18T03:21:08;-6.00;99.90
22194;DHT22;11262;50.308;9.270;2022-12-18T03:23:40;-6.00;99.90
22194;DHT22;11262;50.308;9.270;2022-12-18T03:26:10;-6.10;99.90
22194;DHT22;11262;50.308;9.270;2022-12-18T03:28:39;-6.10;99.90
22194;DHT22;11262;50.308;9.270;2022-12-18T03:31:09;-6.10;99.90
22194;DHT22;11262;50.308;9.270;2022-12-18T03:33:43;-6.10;99.90
22194;DHT22;11262;50.308;9.270;2022-12-18T03:36:11;-6.10;99.90
22194;DHT22;11262;50.308;9.270;2022-12-18T03:38:36;-6.10;99.90
22194;DHT22;11262;50.308;9.270;2022-12-18T03:46:45;-6.20;99.90
22194;DHT22;11262;50.308;9.270;2022-12-18T03:49:51;-6.20;99.90
22194;DHT22;11262;50.308;9.270;2022-12-18T03:52:36;-6.20;99.90
22194;DHT22;11262;50.308;9.270;2022-12-18T03:55:05;-6.20;99.90
22194;DHT22;11262;50.308;9.270;2022-12-18T03:57:32;-6.20;99.90
22194;DHT22;11262;50.308;9.270;2022-12-18T04:00:05;-6.20;99.90
22194;DHT22;11262;50.308;9.270;2022-12-18T04:02:31;-6.20;99.90
22194;DHT22;11262;50.308;9.270;2022-12-18T04:05:02;-6.20;99.90
22194;DHT22;11262;50.308;9.270;2022-12-18T04:07:29;-6.20;99.90
22194;DHT22;11262;50.308;9.270;2022-12-18T04:09:56;-6.30;99.90
22194;DHT22;11262;50.308;9.270;2022-12-18T04:12:25;-6.20;99.90
22194;DHT22;11262;50.308;9.270;2022-12-18T04:14:51;-6.20;99.90
22194;DHT22;11262;50.308;9.270;2022-12-18T04:17:17;-6.20;99.90
22194;DHT22;11262;50.308;9.270;2022-12-18T04:19:43;-6.20;99.90
22194;DHT22;11262;50.308;9.270;2022-12-18T04:22:09;-6.20;99.90
22194;DHT22;11262;50.308;9.270;2022-12-18T04:24:35;-6.20;99.90
22194;DHT22;11262;50.308;9.270;2022-12-18T04:27:01;-6.20;99.90
22194;DHT22;11262;50.308;9.270;2022-12-18T04:29:27;-6.20;99.90
22194;DHT22;11262;50.308;9.270;2022-12-18T04:31:53;-6.20;99.90
22194;DHT22;11262;50.308;9.270;2022-12-18T04:34:20;-6.20;99.90
22194;DHT22;11262;50.308;9.270;2022-12-18T04:36:45;-6.20;99.90
22194;DHT22;11262;50.308;9.270;2022-12-18T04:39:11;-6.20;99.90
22194;DHT22;11262;50.308;9.270;2022-12-18T04:41:37;-6.10;99.90
22194;DHT22;11262;50.308;9.270;2022-12-18T04:44:02;-6.00;99.90
22194;DHT22;11262;50.308;9.270;2022-12-18T04:46:28;-6.00;99.90
22194;DHT22;11262;50.308;9.270;2022-12-18T04:48:54;-6.00;99.90
22194;DHT22;11262;50.308;9.270;2022-12-18T04:51:19;-6.00;99.90
22194;DHT22;11262;50.308;9.270;2022-12-18T04:53:45;-5.90;99.90
22194;DHT22;11262;50.308;9.270;2022-12-18T04:56:13;-5.90;99.90
22194;DHT22;11262;50.308;9.270;2022-12-18T04:58:41;-5.90;99.90
22194;DHT22;11262;50.308;9.270;2022-12-18T05:01:07;-5.90;99.90
22194;DHT22;11262;50.308;9.270;2022-12-18T05:03:34;-5.80;99.90
22194;DHT22;11262;50.308;9.270;2022-12-18T05:06:00;-5.80;99.90
22194;DHT22;11262;50.308;9.270;2022-12-18T05:08:26;-5.80;99.90
22194;DHT22;11262;50.308;9.270;2022-12-18T05:11:03;-5.80;99.90
22194;DHT22;11262;50.308;9.270;2022-12-18T05:13:29;-5.90;99.90
22194;DHT22;11262;50.308;9.270;2022-12-18T05:15:55;-5.80;99.90
22194;DHT22;11262;50.308;9.270;2022-12-18T05:18:25;-5.90;99.90
22194;DHT22;11262;50.308;9.270;2022-12-18T05:20:51;-5.90;99.90
22194;DHT22;11262;50.308;9.270;2022-12-18T05:23:18;-5.90;99.90
22194;DHT22;11262;50.308;9.270;2022-12-18T05:25:53;-5.80;99.90
22194;DHT22;11262;50.308;9.270;2022-12-18T05:28:19;-5.80;99.90
22194;DHT22;11262;50.308;9.270;2022-12-18T05:30:49;-5.80;99.90
22194;DHT22;11262;50.308;9.270;2022-12-18T05:33:15;-5.80;99.90
22194;DHT22;11262;50.308;9.270;2022-12-18T05:35:41;-5.80;99.90
22194;DHT22;11262;50.308;9.270;2022-12-18T05:38:06;-5.80;99.90
22194;DHT22;11262;50.308;9.270;2022-12-18T05:40:32;-5.80;99.90
22194;DHT22;11262;50.308;9.270;2022-12-18T05:42:57;-5.80;99.90
22194;DHT22;11262;50.308;9.270;2022-12-18T05:45:23;-5.80;99.90
22194;DHT22;11262;50.308;9.270;2022-12-18T05:47:48;-5.70;99.90
22194;DHT22;11262;50.308;9.270;2022-12-18T05:50:14;-5.70;99.90
22194;DHT22;11262;50.308;9.270;2022-12-18T05:52:40;-5.70;99.90
22194;DHT22;11262;50.308;9.270;2022-12-18T05:55:05;-5.70;99.90
22194;DHT22;11262;50.308;9.270;2022-12-18T05:57:31;-5.80;99.90
22194;DHT22;11262;50.308;9.270;2022-12-18T05:59:56;-5.80;99.90
22194;DHT22;11262;50.308;9.270;2022-12-18T06:02:22;-5.70;99.90
22194;DHT22;11262;50.308;9.270;2022-12-18T06:04:48;-5.70;99.90
22194;DHT22;11262;50.308;9.270;2022-12-18T06:07:14;-5.80;99.90
22194;DHT22;11262;50.308;9.270;2022-12-18T06:09:39;-5.80;99.90
22194;DHT22;11262;50.308;9.270;2022-12-18T06:12:06;-5.90;99.90
22194;DHT22;11262;50.308;9.270;2022-12-18T06:14:31;-5.90;99.90
22194;DHT22;11262;50.308;9.270;2022-12-18T06:16:57;-6.00;99.90
22194;DHT22;11262;50.308;9.270;2022-12-18T06:19:22;-6.00;99.90
22194;DHT22;11262;50.308;9.270;2022-12-18T06:21:48;-6.10;99.90
22194;DHT22;11262;50.308;9.270;2022-12-18T06:24:14;-6.10;99.90
22194;DHT22;11262;50.308;9.270;2022-12-18T06:26:40;-6.10;99.90
22194;DHT22;11262;50.308;9.270;2022-12-18T06:29:06;-6.10;99.90
22194;DHT22;11262;50.308;9.270;2022-12-18T06:31:31;-6.00;99.90
22194;DHT22;11262;50.308;9.270;2022-12-18T06:33:57;-6.00;99.90
22194;DHT22;11262;50.308;9.270;2022-12-18T06:36:23;-6.00;99.90
22194;DHT22;11262;50.308;9.270;2022-12-18T06:38:48;-5.90;99.90
22194;DHT22;11262;50.308;9.270;2022-12-18T06:41:16;-5.90;99.90
22194;DHT22;11262;50.308;9.270;2022-12-18T06:43:43;-5.80;99.90
22194;DHT22;11262;50.308;9.270;2022-12-18T06:46:09;-5.80;99.90
22194;DHT22;11262;50.308;9.270;2022-12-18T06:48:35;-5.80;99.90
22194;DHT22;11262;50.308;9.270;2022-12-18T06:51:01;-5.80;99.90
22194;DHT22;11262;50.308;9.270;2022-12-18T06:53:27;-5.80;99.90
22194;DHT22;11262;50.308;9.270;2022-12-18T06:56:03;-5.80;99.90
22194;DHT22;11262;50.308;9.270;2022-12-18T06:58:28;-5.80;99.90
22194;DHT22;11262;50.308;9.270;2022-12-18T07:01:00;-5.80;99.90
22194;DHT22;11262;50.308;9.270;2022-12-18T07:03:25;-5.80;99.90
22194;DHT22;11262;50.308;9.270;2022-12-18T07:05:51;-5.80;99.90
22194;DHT22;11262;50.308;9.270;2022-12-18T07:08:16;-5.80;99.90
22194;DHT22;11262;50.308;9.270;2022-12-18T07:10:43;-5.80;99.90
22194;DHT22;11262;50.308;9.270;2022-12-18T07:13:08;-5.80;99.90
22194;DHT22;11262;50.308;9.270;2022-12-18T07:15:34;-5.80;99.90
22194;DHT22;11262;50.308;9.270;2022-12-18T07:17:59;-5.80;99.90
22194;DHT22;11262;50.308;9.270;2022-12-18T07:20:25;-5.80;99.90
22194;DHT22;11262;50.308;9.270;2022-12-18T07:22:51;-5.90;99.90
22194;DHT22;11262;50.308;9.270;2022-12-18T07:25:16;-5.90;99.90
22194;DHT22;11262;50.308;9.270;2022-12-18T07:27:42;-6.00;99.90
22194;DHT22;11262;50.308;9.270;2022-12-18T07:30:08;-6.00;99.90
22194;DHT22;11262;50.308;9.270;2022-12-18T07:32:34;-5.90;99.90
22194;DHT22;11262;50.308;9.270;2022-12-18T07:34:59;-5.90;99.90
22194;DHT22;11262;50.308;9.270;2022-12-18T07:37:25;-5.80;99.90
22194;DHT22;11262;50.308;9.270;2022-12-18T07:39:50;-5.80;99.90
22194;DHT22;11262;50.308;9.270;2022-12-18T07:42:16;-5.80;99.90
22194;DHT22;11262;50.308;9.270;2022-12-18T07:45:00;-5.70;99.90
22194;DHT22;11262;50.308;9.270;2022-12-18T07:47:35;-5.60;99.90
22194;DHT22;11262;50.308;9.270;2022-12-18T07:50:06;-5.60;99.90
22194;DHT22;11262;50.308;9.270;2022-12-18T07:52:32;-5.50;99.90
22194;DHT22;11262;50.308;9.270;2022-12-18T07:54:58;-5.50;99.90
22194;DHT22;11262;50.308;9.270;2022-12-18T07:57:23;-5.50;99.90
22194;DHT22;11262;50.308;9.270;2022-12-18T07:59:49;-5.50;99.90
22194;DHT22;11262;50.308;9.270;2022-12-18T08:02:14;-5.50;99.90
22194;DHT22;11262;50.308;9.270;2022-12-18T08:04:40;-5.50;99.90
22194;DHT22;11262;50.308;9.270;2022-12-18T08:07:06;-5.50;99.90
22194;DHT22;11262;50.308;9.270;2022-12-18T08:09:31;-5.40;99.90
22194;DHT22;11262;50.308;9.270;2022-12-18T08:11:57;-5.40;99.90
22194;DHT22;11262;50.308;9.270;2022-12-18T08:14:22;-5.40;99.90
22194;DHT22;11262;50.308;9.270;2022-12-18T08:16:48;-5.40;99.90
22194;DHT22;11262;50.308;9.270;2022-12-18T08:19:13;-5.40;99.90
22194;DHT22;11262;50.308;9.270;2022-12-18T08:21:42;-5.30;99.90
22194;DHT22;11262;50.308;9.270;2022-12-18T08:24:09;-5.30;99.90
22194;DHT22;11262;50.308;9.270;2022-12-18T08:26:34;-5.30;99.90
22194;DHT22;11262;50.308;9.270;2022-12-18T08:29:00;-5.20;99.90
22194;DHT22;11262;50.308;9.270;2022-12-18T08:31:27;-5.20;99.90
22194;DHT22;11262;50.308;9.270;2022-12-18T08:33:54;-5.20;99.90
22194;DHT22;11262;50.308;9.270;2022-12-18T08:36:20;-5.10;99.90
22194;DHT22;11262;50.308;9.270;2022-12-18T08:38:47;-5.10;99.90
22194;DHT22;11262;50.308;9.270;2022-12-18T08:41:14;-5.00;99.90
22194;DHT22;11262;50.308;9.270;2022-12-18T08:43:40;-5.00;99.90
22194;DHT22;11262;50.308;9.270;2022-12-18T08:46:36;-4.90;99.90
22194;DHT22;11262;50.308;9.270;2022-12-18T08:49:03;-4.80;99.90
22194;DHT22;11262;50.308;9.270;2022-12-18T08:51:29;-4.70;99.90
22194;DHT22;11262;50.308;9.270;2022-12-18T08:53:55;-4.70;99.90
22194;DHT22;11262;50.308;9.270;2022-12-18T08:56:20;-4.60;99.90
22194;DHT22;11262;50.308;9.270;2022-12-18T08:58:46;-4.60;99.90
22194;DHT22;11262;50.308;9.270;2022-12-18T09:01:12;-4.60;99.90
22194;DHT22;11262;50.308;9.270;2022-12-18T09:03:39;-4.50;99.90
22194;DHT22;11262;50.308;9.270;2022-12-18T09:06:05;-4.50;99.90
22194;DHT22;11262;50.308;9.270;2022-12-18T09:08:34;-4.40;99.90
22194;DHT22;11262;50.308;9.270;2022-12-18T09:11:00;-4.30;99.90
22194;DHT22;11262;50.308;9.270;2022-12-18T09:13:26;-4.30;99.90
22194;DHT22;11262;50.308;9.270;2022-12-18T09:15:53;-4.20;99.90
22194;DHT22;11262;50.308;9.270;2022-12-18T09:18:21;-4.10;99.90
22194;DHT22;11262;50.308;9.270;2022-12-18T09:20:46;-4.00;99.90
22194;DHT22;11262;50.308;9.270;2022-12-18T09:23:13;-4.00;99.90
22194;DHT22;11262;50.308;9.270;2022-12-18T09:25:39;-4.00;99.90
22194;DHT22;11262;50.308;9.270;2022-12-18T09:28:09;-3.90;99.90
22194;DHT22;11262;50.308;9.270;2022-12-18T09:30:41;-3.70;99.90
22194;DHT22;11262;50.308;9.270;2022-12-18T09:33:07;-3.60;99.90
22194;DHT22;11262;50.308;9.270;2022-12-18T09:35:40;-3.60;99.90
22194;DHT22;11262;50.308;9.270;2022-12-18T09:38:07;-3.60;99.90
22194;DHT22;11262;50.308;9.270;2022-12-18T09:40:43;-3.50;99.90
22194;DHT22;11262;50.308;9.270;2022-12-18T09:43:17;-3.50;99.90
22194;DHT22;11262;50.308;9.270;2022-12-18T09:45:47;-3.60;99.90
22194;DHT22;11262;50.308;9.270;2022-12-18T09:48:35;-3.50;99.90
22194;DHT22;11262;50.308;9.270;2022-12-18T09:52:05;-3.30;99.90
22194;DHT22;11262;50.308;9.270;2022-12-18T09:54:34;-3.10;99.90
22194;DHT22;11262;50.308;9.270;2022-12-18T09:57:01;-3.10;99.90
22194;DHT22;11262;50.308;9.270;2022-12-18T09:59:32;-3.00;99.90
22194;DHT22;11262;50.308;9.270;2022-12-18T10:01:59;-3.10;99.90
22194;DHT22;11262;50.308;9.270;2022-12-18T10:04:33;-3.00;99.90
22194;DHT22;11262;50.308;9.270;2022-12-18T10:07:25;-3.00;99.90
22194;DHT22;11262;50.308;9.270;2022-12-18T10:09:58;-2.90;99.90
22194;DHT22;11262;50.308;9.270;2022-12-18T10:12:55;-3.00;99.90
22194;DHT22;11262;50.308;9.270;2022-12-18T10:15:37;-3.00;99.90
22194;DHT22;11262;50.308;9.270;2022-12-18T10:18:28;-3.00;99.90
22194;DHT22;11262;50.308;9.270;2022-12-18T10:21:02;-3.10;99.90
22194;DHT22;11262;50.308;9.270;2022-12-18T10:24:03;-3.30;99.90
22194;DHT22;11262;50.308;9.270;2022-12-18T10:26:33;-3.10;99.90
22194;DHT22;11262;50.308;9.270;2022-12-18T10:28:59;-3.10;99.90
22194;DHT22;11262;50.308;9.270;2022-12-18T10:31:25;-3.00;99.90
22194;DHT22;11262;50.308;9.270;2022-12-18T10:33:51;-3.10;99.90
22194;DHT22;11262;50.308;9.270;2022-12-18T10:36:18;-3.00;99.90
22194;DHT22;11262;50.308;9.270;2022-12-18T10:38:45;-3.10;99.90
22194;DHT22;11262;50.308;9.270;2022-12-18T10:46:36;-3.30;99.90
22194;DHT22;11262;50.308;9.270;2022-12-18T10:49:02;-3.30;99.90
22194;DHT22;11262;50.308;9.270;2022-12-18T10:51:30;-3.20;99.90
22194;DHT22;11262;50.308;9.270;2022-12-18T10:54:02;-3.10;99.90
22194;DHT22;11262;50.308;9.270;2022-12-18T10:56:30;-2.90;99.90
22194;DHT22;11262;50.308;9.270;2022-12-18T10:59:04;-2.90;99.90
22194;DHT22;11262;50.308;9.270;2022-12-18T11:01:52;-3.10;99.90
22194;DHT22;11262;50.308;9.270;2022-12-18T11:04:29;-3.30;99.90
22194;DHT22;11262;50.308;9.270;2022-12-18T11:06:57;-3.50;99.90
22194;DHT22;11262;50.308;9.270;2022-12-18T11:09:34;-3.50;99.90
22194;DHT22;11262;50.308;9.270;2022-12-18T11:12:14;-3.70;99.90
22194;DHT22;11262;50.308;9.270;2022-12-18T11:14:45;-3.70;99.90
22194;DHT22;11262;50.308;9.270;2022-12-18T11:17:25;-3.70;99.90
22194;DHT22;11262;50.308;9.270;2022-12-18T11:19:55;-3.90;99.90
22194;DHT22;11262;50.308;9.270;2022-12-18T11:22:30;-3.90;99.90
22194;DHT22;11262;50.308;9.270;2022-12-18T11:25:02;-4.00;99.90
22194;DHT22;11262;50.308;9.270;2022-12-18T11:27:29;-4.20;99.90
22194;DHT22;11262;50.308;9.270;2022-12-18T11:30:36;-4.30;99.90
22194;DHT22;11262;50.308;9.270;2022-12-18T11:33:08;-4.30;99.90
22194;DHT22;11262;50.308;9.270;2022-12-18T11:35:51;-4.40;99.90
22194;DHT22;11262;50.308;9.270;2022-12-18T11:38:28;-4.30;99.90
22194;DHT22;11262;50.308;9.270;2022-12-18T11:41:34;-4.20;99.90
22194;DHT22;11262;50.308;9.270;2022-12-18T11:44:46;-4.20;99.90
22194;DHT22;11262;50.308;9.270;2022-12-18T11:49:49;-4.00;99.90
22194;DHT22;11262;50.308;9.270;2022-12-18T11:52:19;-4.20;99.90
22194;DHT22;11262;50.308;9.270;2022-12-18T11:54:58;-4.30;99.90
22194;DHT22;11262;50.308;9.270;2022-12-18T12:00:19;-4.30;99.90
22194;DHT22;11262;50.308;9.270;2022-12-18T12:21:41;-3.90;99.90
22194;DHT22;11262;50.308;9.270;2022-12-18T12:27:17;-4.10;99.90
22194;DHT22;11262;50.308;9.270;2022-12-18T12:32:45;-4.20;99.90
22194;DHT22;11262;50.308;9.270;2022-12-18T12:35:32;-4.20;99.90
22194;DHT22;11262;50.308;9.270;2022-12-18T12:38:12;-4.20;99.90
22194;DHT22;11262;50.308;9.270;2022-12-18T12:40:46;-4.20;99.90
22194;DHT22;11262;50.308;9.270;2022-12-18T12:45:57;-4.10;99.90
22194;DHT22;11262;50.308;9.270;2022-12-18T12:48:47;-4.10;99.90
22194;DHT22;11262;50.308;9.270;2022-12-18T12:51:21;-4.10;99.90
22194;DHT22;11262;50.308;9.270;2022-12-18T12:53:48;-4.00;99.90
22194;DHT22;11262;50.308;9.270;2022-12-18T12:56:17;-3.90;99.90
22194;DHT22;11262;50.308;9.270;2022-12-18T12:59:00;-3.80;99.90
22194;DHT22;11262;50.308;9.270;2022-12-18T13:01:43;-3.70;99.90
22194;DHT22;11262;50.308;9.270;2022-12-18T13:23:39;-3.90;99.90
22194;DHT22;11262;50.308;9.270;2022-12-18T13:31:14;-4.00;99.90
22194;DHT22;11262;50.308;9.270;2022-12-18T13:33:44;-3.90;99.90
22194;DHT22;11262;50.308;9.270;2022-12-18T13:38:40;-3.90;99.90
22194;DHT22;11262;50.308;9.270;2022-12-18T13:41:22;-4.00;99.90
22194;DHT22;11262;50.308;9.270;2022-12-18T13:43:54;-4.10;99.90
22194;DHT22;11262;50.308;9.270;2022-12-18T13:46:28;-4.10;99.90
22194;DHT22;11262;50.308;9.270;2022-12-18T13:49:05;-4.20;99.90
22194;DHT22;11262;50.308;9.270;2022-12-18T13:51:48;-4.20;99.90
22194;DHT22;11262;50.308;9.270;2022-12-18T13:56:47;-4.30;99.90
22194;DHT22;11262;50.308;9.270;2022-12-18T13:59:20;-4.30;99.90
22194;DHT22;11262;50.308;9.270;2022-12-18T14:01:58;-4.30;99.90
22194;DHT22;11262;50.308;9.270;2022-12-18T14:09:34;-4.40;99.90
22194;DHT22;11262;50.308;9.270;2022-12-18T14:12:01;-4.40;99.90
22194;DHT22;11262;50.308;9.270;2022-12-18T14:14:47;-4.40;99.90
22194;DHT22;11262;50.308;9.270;2022-12-18T14:17:15;-4.40;99.90
22194;DHT22;11262;50.308;9.270;2022-12-18T14:19:43;-4.30;99.90
22194;DHT22;11262;50.308;9.270;2022-12-18T14:22:18;-4.40;99.90
22194;DHT22;11262;50.308;9.270;2022-12-18T14:24:44;-4.50;99.90
22194;DHT22;11262;50.308;9.270;2022-12-18T14:27:25;-4.40;99.90
22194;DHT22;11262;50.308;9.270;2022-12-18T14:29:50;-4.50;99.90
22194;DHT22;11262;50.308;9.270;2022-12-18T14:32:18;-4.50;99.90
22194;DHT22;11262;50.308;9.270;2022-12-18T14:34:52;-4.50;99.90
22194;DHT22;11262;50.308;9.270;2022-12-18T14:37:25;-4.50;99.90
22194;DHT22;11262;50.308;9.270;2022-12-18T14:42:20;-4.50;99.90
22194;DHT22;11262;50.308;9.270;2022-12-18T14:44:46;-4.50;99.90
22194;DHT22;11262;50.308;9.270;2022-12-18T14:47:15;-4.50;99.90
22194;DHT22;11262;50.308;9.270;2022-12-18T14:49:42;-4.40;99.90
22194;DHT22;11262;50.308;9.270;2022-12-18T14:52:27;-4.40;99.90
22194;DHT22;11262;50.308;9.270;2022-12-18T14:54:54;-4.40;99.90
22194;DHT22;11262;50.308;9.270;2022-12-18T14:57:34;-4.40;99.90
22194;DHT22;11262;50.308;9.270;2022-12-18T15:00:18;-4.50;99.90
22194;DHT22;11262;50.308;9.270;2022-12-18T15:02:47;-4.50;99.90
22194;DHT22;11262;50.308;9.270;2022-12-18T15:05:18;-4.50;99.90
22194;DHT22;11262;50.308;9.270;2022-12-18T15:07:49;-4.50;99.90
22194;DHT22;11262;50.308;9.270;2022-12-18T15:10:16;-4.50;99.90
22194;DHT22;11262;50.308;9.270;2022-12-18T15:12:50;-4.50;99.90
22194;DHT22;11262;50.308;9.270;2022-12-18T15:20:50;-4.50;99.90
22194;DHT22;11262;50.308;9.270;2022-12-18T15:23:19;-4.40;99.90
22194;DHT22;11262;50.308;9.270;2022-12-18T15:25:46;-4.50;99.90
22194;DHT22;11262;50.308;9.270;2022-12-18T15:28:19;-4.50;99.90
22194;DHT22;11262;50.308;9.270;2022-12-18T15:36:19;-4.50;99.90
22194;DHT22;11262;50.308;9.270;2022-12-18T15:38:52;-4.60;99.90
22194;DHT22;11262;50.308;9.270;2022-12-18T15:41:20;-4.50;99.90
22194;DHT22;11262;50.308;9.270;2022-12-18T15:43:48;-4.50;99.90
22194;DHT22;11262;50.308;9.270;2022-12-18T15:46:18;-4.50;99.90
22194;DHT22;11262;50.308;9.270;2022-12-18T15:48:49;-4.50;99.90
22194;DHT22;11262;50.308;9.270;2022-12-18T15:51:15;-4.60;99.90
22194;DHT22;11262;50.308;9.270;2022-12-18T15:53:41;-4.50;99.90
22194;DHT22;11262;50.308;9.270;2022-12-18T15:56:10;-4.60;99.90
22194;DHT22;11262;50.308;9.270;2022-12-18T15:58:54;-4.50;99.90
22194;DHT22;11262;50.308;9.270;2022-12-18T16:01:21;-4.50;99.90
22194;DHT22;11262;50.308;9.270;2022-12-18T16:03:48;-4.60;99.90
22194;DHT22;11262;50.308;9.270;2022-12-18T16:06:13;-4.50;99.90
22194;DHT22;11262;50.308;9.270;2022-12-18T16:08:39;-4.60;99.90
22194;DHT22;11262;50.308;9.270;2022-12-18T16:11:05;-4.50;99.90
22194;DHT22;11262;50.308;9.270;2022-12-18T16:13:31;-4.50;99.90
22194;DHT22;11262;50.308;9.270;2022-12-18T16:15:56;-4.50;99.90
22194;DHT22;11262;50.308;9.270;2022-12-18T16:18:22;-4.50;99.90
22194;DHT22;11262;50.308;9.270;2022-12-18T16:20:48;-4.50;99.90
22194;DHT22;11262;50.308;9.270;2022-12-18T16:23:14;-4.40;99.90
22194;DHT22;11262;50.308;9.270;2022-12-18T16:25:39;-4.40;99.90
22194;DHT22;11262;50.308;9.270;2022-12-18T16:28:05;-4.40;99.90
22194;DHT22;11262;50.308;9.270;2022-12-18T16:30:31;-4.40;99.90
22194;DHT22;11262;50.308;9.270;2022-12-18T16:32:59;-4.40;99.90
22194;DHT22;11262;50.308;9.270;2022-12-18T16:35:26;-4.40;99.90
22194;DHT22;11262;50.308;9.270;2022-12-18T16:37:52;-4.30;99.90
22194;DHT22;11262;50.308;9.270;2022-12-18T16:40:18;-4.30;99.90
22194;DHT22;11262;50.308;9.270;2022-12-18T16:42:45;-4.30;99.90
22194;DHT22;11262;50.308;9.270;2022-12-18T16:45:14;-4.20;99.90
22194;DHT22;11262;50.308;9.270;2022-12-18T16:47:40;-4.20;99.90
22194;DHT22;11262;50.308;9.270;2022-12-18T16:50:07;-4.30;99.90
22194;DHT22;11262;50.308;9.270;2022-12-18T16:52:33;-4.20;99.90
22194;DHT22;11262;50.308;9.270;2022-12-18T16:54:59;-4.30;99.90
22194;DHT22;11262;50.308;9.270;2022-12-18T16:57:25;-4.20;99.90
22194;DHT22;11262;50.308;9.270;2022-12-18T16:59:51;-4.20;99.90
22194;DHT22;11262;50.308;9.270;2022-12-18T17:02:25;-4.30;99.90
22194;DHT22;11262;50.308;9.270;2022-12-18T17:04:55;-4.20;99.90
22194;DHT22;11262;50.308;9.270;2022-12-18T17:07:22;-4.20;99.90
22194;DHT22;11262;50.308;9.270;2022-12-18T17:09:47;-4.20;99.90
22194;DHT22;11262;50.308;9.270;2022-12-18T17:12:15;-4.20;99.90
22194;DHT22;11262;50.308;9.270;2022-12-18T17:14:40;-4.20;99.90
22194;DHT22;11262;50.308;9.270;2022-12-18T17:17:06;-4.20;99.90
22194;DHT22;11262;50.308;9.270;2022-12-18T17:19:32;-4.10;99.90
22194;DHT22;11262;50.308;9.270;2022-12-18T17:21:58;-4.10;99.90
22194;DHT22;11262;50.308;9.270;2022-12-18T17:24:24;-4.10;99.90
22194;DHT22;11262;50.308;9.270;2022-12-18T17:26:50;-4.10;99.90
22194;DHT22;11262;50.308;9.270;2022-12-18T17:29:18;-4.10;99.90
22194;DHT22;11262;50.308;9.270;2022-12-18T17:31:45;-4.10;99.90
22194;DHT22;11262;50.308;9.270;2022-12-18T17:34:12;-4.10;99.90
22194;DHT22;11262;50.308;9.270;2022-12-18T17:36:38;-4.00;99.90
22194;DHT22;11262;50.308;9.270;2022-12-18T17:39:05;-4.00;99.90
22194;DHT22;11262;50.308;9.270;2022-12-18T17:41:31;-4.00;99.90
22194;DHT22;11262;50.308;9.270;2022-12-18T17:43:59;-4.00;99.90